Randolph Air Force Base
KRND : now visible

Airfield :











YOU CAN JOIN US ON...

 
LOGIN :

Register | Disclaimer

   EN    FR    IT 

 









Legend :    VFR   Marginal VFR   IFR   Intensive IFR   Very Intensive IFR
Visi :
Ceiling :
>= 8 km
>= 3000ft
5 to 8 km
1000 to 3000 ft
1500m to 5 km
500 to 1000 ft
800 to 1500m
200 to 500 ft
< 800m
< 200 ft
Symbols :   Thunderstorms  Fog  Heavy snow  Heavy precipitations  Wind > 20 kt






- Airport Elevation : 761 ft


KRND - Randolph Air Force Base

CURRENT METAR :
  • 031436Z AUTO 02009KT 10SM SCT043 27/23 A3000 RMK AO2 SLP151

EXPIRED METARs :
  • 031406Z AUTO 03005KT 10SM BKN046 26/23 A3000 RMK AO2 SLP152
  • 031356Z AUTO 01005KT 10SM FEW047 SCT170 25/23 A3000 RMK AO2 SLP152 T02540227
  • 031336Z AUTO 01005KT 10SM SCT047 BKN170 25/23 A3000 RMK AO2 SLP152
  • 031311Z AUTO 02003KT 10SM BKN046 OVC100 24/23 A3000 RMK AO2 SLP152
  • 031256Z AUTO 01003KT 10SM FEW070 BKN100 24/23 A3000 RMK AO2 SLP152 T02410229
  • 031156Z AUTO 34003KT 10SM OVC095 23/23 A2997 RMK AO2 SLP141 60000 70020 T02320228 10240 20232 53001

TAF TAF KRND
Valid from the 03 at 10:00 until the 04 at 16:00 UTC


030930Z 0310/0416 36004KT 9999 FEW018 SCT025 BKN150 QNH2994INS
TEMPO 0312/0315 8000 BR VCSH SCT018 BKN025 OVC150
BECMG 0315/0316 02010G15KT 9999 SCT025 BKN035 QNH2988INS
BECMG 0322/0323 04009KT 9999 BKN050 QNH2988INS TX33/0321Z TN23/0311Z
KZHU FIR / North America



MET'MAP, your aeronautical weather chart ! - Copyright ORBIFLY December 2007 - Disclaimer

ORBIFLY MET'MAP TEAM :

Programming & Development : Alexandra Zaïnal
Concept & original design : Baudouin d'Aumeries
Assistance for programming : Marc-Olivier Méhu
Technical & hardware support : Manuel Goepfert

Contact : metmap@orbifly.com




SOURCES & CREDITS :

   NOAA       Earth
Advisory